Time;durP1;ratioP1;P1;durP2;ratioP2;P2;SDS_P1;SDS_P2;PMS_P1;PMS_P2;Temp;Humidity;BMP_temperature;BMP_pressure;BME280_temperature;BME280_humidity;BME280_pressure;Samples;Min_cycle;Max_cycle;Signal;HPM_P1;HPM_P2
2022/01/06 00:00:53;;;;;;;28.30;12.70;;;;;;;4.07;81.65;93816.19;5114898;28;20258;-73
2022/01/06 00:03:20;;;;;;;22.58;10.18;;;;;;;3.93;82.23;93815.47;5101351;28;20240;-72
2022/01/06 00:05:47;;;;;;;23.00;10.30;;;;;;;3.93;82.84;93810.88;5115156;28;20290;-74
2022/01/06 00:08:15;;;;;;;22.25;9.75;;;;;;;4.05;82.79;93813.00;5114569;28;20229;-73
2022/01/06 00:10:42;;;;;;;19.55;10.07;;;;;;;4.09;82.73;93819.34;5114685;28;20199;-74
2022/01/06 00:13:11;;;;;;;22.45;11.07;;;;;;;4.22;81.92;93821.16;5114867;28;20202;-73
2022/01/06 00:15:44;;;;;;;22.40;9.68;;;;;;;4.21;82.22;93811.53;5114145;28;20198;-74
2022/01/06 00:18:29;;;;;;;30.42;13.18;;;;;;;4.19;81.55;93819.06;5114568;28;20204;-74
2022/01/06 00:23:43;;;;;;;21.33;9.20;;;;;;;3.91;82.36;93823.00;5113425;28;20201;-75
2022/01/06 00:26:10;;;;;;;25.20;9.45;;;;;;;3.74;82.82;93831.69;5099877;28;20207;-74
2022/01/06 00:28:38;;;;;;;20.70;9.25;;;;;;;3.67;82.77;93822.53;5113105;28;20225;-74
2022/01/06 00:31:05;;;;;;;19.73;8.88;;;;;;;3.70;83.16;93811.19;5092753;28;20202;-74
2022/01/06 00:33:34;;;;;;;17.77;8.85;;;;;;;3.79;84.39;93820.09;5106347;28;20218;-74
2022/01/06 00:36:01;;;;;;;22.60;9.70;;;;;;;3.84;83.06;93836.03;5113266;28;20250;-74
2022/01/06 00:38:28;;;;;;;22.33;10.10;;;;;;;3.77;84.40;93825.75;5112134;28;20614;-75
2022/01/06 00:40:58;;;;;;;19.10;9.23;;;;;;;3.81;84.24;93829.41;5112941;28;20252;-75
2022/01/06 00:43:25;;;;;;;13.20;6.32;;;;;;;3.84;82.81;93827.97;5112682;28;20658;-74
2022/01/06 00:45:52;;;;;;;20.13;9.65;;;;;;;3.99;82.54;93808.06;5113054;28;20558;-74
2022/01/06 00:48:19;;;;;;;18.23;8.98;;;;;;;3.87;82.92;93832.72;5112702;28;20225;-74
2022/01/06 00:50:46;;;;;;;14.48;8.05;;;;;;;3.74;82.63;93828.22;5112709;28;20643;-75
2022/01/06 00:53:13;;;;;;;17.25;8.38;;;;;;;3.52;82.59;93840.53;5112799;28;20202;-75
2022/01/06 00:55:41;;;;;;;14.93;7.68;;;;;;;3.63;81.97;93829.56;5113468;28;20572;-75
2022/01/06 00:58:10;;;;;;;11.65;7.10;;;;;;;3.68;82.21;93840.19;5113787;28;20209;-74
2022/01/06 01:00:40;;;;;;;11.48;6.22;;;;;;;3.53;82.79;93854.69;5112501;28;20681;-75
2022/01/06 01:03:10;;;;;;;11.48;6.53;;;;;;;3.39;82.69;93836.00;5114203;28;20193;-74
2022/01/06 01:05:37;;;;;;;10.73;6.72;;;;;;;3.61;83.49;93842.47;5113927;28;20189;-74
2022/01/06 01:08:04;;;;;;;13.00;6.35;;;;;;;3.74;82.60;93838.94;5113242;28;20233;-75
2022/01/06 01:10:32;;;;;;;14.98;5.97;;;;;;;3.57;82.56;93845.75;5113472;28;20201;-75
2022/01/06 01:12:59;;;;;;;17.13;7.13;;;;;;;3.58;82.86;93844.66;5113260;28;20687;-74
2022/01/06 01:15:28;;;;;;;15.65;7.18;;;;;;;3.55;82.88;93857.88;5113468;28;20221;-74
2022/01/06 01:18:04;;;;;;;12.27;6.70;;;;;;;3.54;82.33;93846.38;5113623;28;20289;-74
2022/01/06 01:20:32;;;;;;;14.85;6.60;;;;;;;3.50;83.18;93840.03;5112990;28;20200;-75
2022/01/06 01:22:59;;;;;;;17.30;6.47;;;;;;;3.51;84.17;93840.81;5113354;28;20280;-74
2022/01/06 01:25:26;;;;;;;11.60;6.25;;;;;;;3.53;82.94;93855.50;5099654;28;20211;-74
2022/01/06 01:27:55;;;;;;;16.23;6.88;;;;;;;3.20;83.76;93851.41;5113167;28;20233;-74
2022/01/06 01:30:29;;;;;;;14.93;6.60;;;;;;;3.26;83.77;93855.56;5099299;27;20206;-73
2022/01/06 01:32:59;;;;;;;13.93;7.10;;;;;;;3.29;84.08;93849.59;5112586;28;20221;-73
2022/01/06 01:35:32;;;;;;;11.13;6.63;;;;;;;3.42;85.18;93843.41;5113017;28;20204;-74
2022/01/06 01:37:59;;;;;;;16.73;7.70;;;;;;;3.43;84.58;93831.59;5112879;28;20276;-74
2022/01/06 01:40:27;;;;;;;11.80;6.35;;;;;;;3.40;84.30;93834.13;5112490;28;20206;-74
2022/01/06 01:42:54;;;;;;;14.95;7.25;;;;;;;3.34;85.24;93825.41;5112542;28;20237;-74
2022/01/06 01:45:27;;;;;;;17.38;6.35;;;;;;;3.42;84.58;93842.63;5112794;28;20213;-74
2022/01/06 01:47:54;;;;;;;14.55;6.10;;;;;;;3.63;84.45;93832.25;5113098;28;20248;-74
2022/01/06 01:50:22;;;;;;;13.80;6.50;;;;;;;4.57;83.15;93808.69;5113046;28;20220;-74
2022/01/06 01:52:52;;;;;;;11.23;5.93;;;;;;;4.64;80.64;93813.59;5098935;28;20206;-74
2022/01/06 01:55:22;;;;;;;10.35;5.95;;;;;;;4.29;81.99;93824.16;5099279;28;20289;-74
2022/01/06 01:57:50;;;;;;;9.90;5.50;;;;;;;4.16;81.97;93795.56;5112313;28;20213;-74
2022/01/06 02:00:18;;;;;;;14.20;5.90;;;;;;;3.98;82.43;93820.66;5104932;28;20227;-74
2022/01/06 02:02:46;;;;;;;11.30;5.72;;;;;;;3.82;82.95;93819.47;5106932;28;20262;-73
2022/01/06 02:05:14;;;;;;;12.45;5.40;;;;;;;3.81;83.68;93813.34;5112410;28;20202;-74
2022/01/06 02:07:42;;;;;;;12.90;6.10;;;;;;;3.74;84.39;93806.81;5110968;28;20225;-74
2022/01/06 02:10:12;;;;;;;12.50;5.35;;;;;;;3.92;83.79;93809.31;5101232;28;20613;-74
2022/01/06 02:12:41;;;;;;;12.25;5.80;;;;;;;3.88;83.43;93807.53;5112250;28;20560;-74
2022/01/06 02:15:10;;;;;;;12.30;5.78;;;;;;;3.81;83.99;93824.03;5112283;28;20580;-74
2022/01/06 02:17:38;;;;;;;13.45;7.00;;;;;;;3.60;83.77;93811.44;5112464;28;20208;-74
2022/01/06 02:20:09;;;;;;;14.32;6.57;;;;;;;3.74;84.57;93828.22;5112217;28;20688;-73
2022/01/06 02:22:36;;;;;;;10.27;6.15;;;;;;;3.43;83.62;93820.91;5112029;28;20205;-74
2022/01/06 02:25:11;;;;;;;14.43;7.50;;;;;;;3.39;85.18;93836.00;5111935;28;20201;-74
2022/01/06 02:27:38;;;;;;;14.45;7.43;;;;;;;3.53;84.78;93831.41;5112122;28;20552;-73
2022/01/06 02:30:06;;;;;;;14.70;6.43;;;;;;;3.13;85.35;93829.63;5111813;28;20660;-74
2022/01/06 02:32:33;;;;;;;12.25;6.10;;;;;;;3.18;85.60;93842.88;5112159;28;20464;-74
2022/01/06 02:35:04;;;;;;;17.67;7.20;;;;;;;3.22;86.11;93838.53;5112100;28;20200;-74
2022/01/06 02:37:32;;;;;;;13.77;6.97;;;;;;;3.36;85.39;93866.03;5099264;28;20198;-74
2022/01/06 02:39:59;;;;;;;16.08;7.90;;;;;;;3.27;85.06;93856.34;5112041;28;20198;-74
2022/01/06 02:42:27;;;;;;;14.20;6.85;;;;;;;3.17;85.38;93873.41;5111220;28;20232;-74
2022/01/06 02:44:54;;;;;;;10.30;4.25;;;;;;;3.17;85.76;93850.13;5111938;28;20209;-73
2022/01/06 02:47:21;;;;;;;13.00;7.05;;;;;;;3.15;85.92;93860.31;5111634;28;20209;-73
2022/01/06 02:49:47;;;;;;;24.08;7.60;;;;;;;3.17;85.98;93857.34;5111584;28;20619;-74
2022/01/06 02:52:14;;;;;;;14.25;7.65;;;;;;;3.08;86.22;93853.81;5112033;28;20197;-74
2022/01/06 02:54:43;;;;;;;12.93;7.22;;;;;;;3.29;86.46;93859.50;5111421;28;20216;-74
2022/01/06 02:57:10;;;;;;;17.25;8.38;;;;;;;3.11;86.39;93837.16;5111533;28;20201;-74
2022/01/06 02:59:37;;;;;;;10.30;5.97;;;;;;;3.24;86.28;93836.34;5111422;28;20217;-73
2022/01/06 03:02:04;;;;;;;14.45;8.38;;;;;;;3.21;86.26;93850.31;5111201;28;20636;-73
2022/01/06 03:04:31;;;;;;;17.00;8.27;;;;;;;3.17;86.27;93841.28;5111600;28;20240;-74
2022/01/06 03:06:59;;;;;;;13.98;6.43;;;;;;;3.16;86.95;93834.34;5111688;28;20208;-74
2022/01/06 03:09:36;;;;;;;9.18;5.22;;;;;;;3.34;86.39;93841.47;5111346;28;20615;-74
2022/01/06 03:12:07;;;;;;;11.52;6.70;;;;;;;3.34;86.32;93840.66;5111637;28;20193;-74
2022/01/06 03:14:34;;;;;;;14.90;7.35;;;;;;;3.34;86.08;93844.13;5111110;28;20197;-74
2022/01/06 03:17:01;;;;;;;17.92;6.38;;;;;;;3.34;86.94;93865.53;5111701;28;20212;-74
2022/01/06 03:19:28;;;;;;;12.45;6.95;;;;;;;3.17;86.48;93857.34;5111483;28;20262;-74
2022/01/06 03:21:55;;;;;;;16.10;7.35;;;;;;;3.03;86.85;93845.88;5111444;28;20200;-74
2022/01/06 03:24:21;;;;;;;17.42;7.18;;;;;;;3.02;87.09;93828.25;5112258;28;20220;-74
2022/01/06 03:26:48;;;;;;;14.60;7.70;;;;;;;3.03;87.04;93840.53;5115021;28;20209;-74
2022/01/06 03:29:17;;;;;;;13.88;7.55;;;;;;;2.94;86.54;93853.81;5115150;28;20248;-74
2022/01/06 03:31:44;;;;;;;14.68;6.57;;;;;;;2.95;87.13;93843.91;5115513;28;20221;-73
2022/01/06 03:34:10;;;;;;;16.00;6.68;;;;;;;3.02;86.94;93841.59;5115444;28;20322;-74
2022/01/06 03:36:38;;;;;;;13.18;5.93;;;;;;;2.99;87.25;93840.34;5114930;28;20201;-74
2022/01/06 03:39:06;;;;;;;15.98;6.28;;;;;;;3.05;87.19;93849.03;5114970;28;20314;-75
2022/01/06 03:41:33;;;;;;;11.27;6.35;;;;;;;3.12;85.70;93836.06;5114254;28;20238;-74
2022/01/06 03:44:00;;;;;;;13.68;6.18;;;;;;;3.04;86.10;93866.19;5114978;28;20292;-74
2022/01/06 03:46:29;;;;;;;11.38;5.93;;;;;;;2.60;85.39;93854.22;5115514;28;20198;-74
2022/01/06 03:48:55;;;;;;;19.33;7.85;;;;;;;2.55;86.72;93873.03;5102008;28;20237;-74
2022/01/06 03:51:23;;;;;;;12.10;6.40;;;;;;;2.87;87.36;93841.94;5100691;28;20537;-75
2022/01/06 03:53:51;;;;;;;7.40;4.50;;;;;;;3.14;86.26;93856.06;5114130;28;20202;-74
2022/01/06 03:56:18;;;;;;;14.55;6.13;;;;;;;3.16;86.32;93855.75;5114365;28;20698;-75
2022/01/06 03:58:45;;;;;;;13.88;6.75;;;;;;;3.12;86.18;93849.44;5106445;28;20293;-74
2022/01/06 04:01:12;;;;;;;11.32;5.72;;;;;;;3.01;86.57;93866.78;5109343;28;20646;-73
2022/01/06 04:03:40;;;;;;;11.68;5.28;;;;;;;2.99;85.33;93855.59;5114177;28;20258;-73
2022/01/06 04:06:10;;;;;;;12.13;4.88;;;;;;;2.90;85.85;93854.69;5114277;28;20243;-76
2022/01/06 04:08:37;;;;;;;8.43;4.68;;;;;;;2.82;86.11;93880.28;5114517;27;20583;-75
2022/01/06 04:11:04;;;;;;;7.47;4.43;;;;;;;3.13;85.74;93864.41;5114467;28;20561;-74
2022/01/06 04:13:33;;;;;;;13.35;6.00;;;;;;;3.18;85.98;93864.28;5114191;28;20679;-75
2022/01/06 04:16:02;;;;;;;11.90;5.65;;;;;;;3.23;85.55;93861.50;5114294;27;20278;-75
2022/01/06 04:18:29;;;;;;;10.18;5.50;;;;;;;3.37;84.86;93878.34;5114098;28;20204;-75
2022/01/06 04:20:57;;;;;;;6.38;3.60;;;;;;;3.56;83.92;93870.94;5114509;28;20588;-74
2022/01/06 04:23:24;;;;;;;10.90;6.10;;;;;;;3.55;83.84;93863.22;5114363;28;20209;-75
2022/01/06 04:25:51;;;;;;;10.60;6.25;;;;;;;3.51;84.02;93878.31;5113929;28;20587;-75
2022/01/06 04:28:18;;;;;;;9.70;5.95;;;;;;;3.45;84.20;93877.59;5108703;28;20673;-75
2022/01/06 04:30:45;;;;;;;12.45;6.25;;;;;;;3.20;84.92;93870.13;5111879;28;20583;-75
2022/01/06 04:33:12;;;;;;;15.98;7.22;;;;;;;3.23;84.91;93877.56;5114725;28;20276;-75
2022/01/06 04:35:39;;;;;;;12.10;6.13;;;;;;;3.23;85.42;93896.31;5114143;28;20204;-74
2022/01/06 04:38:07;;;;;;;17.83;5.93;;;;;;;3.06;85.31;93882.72;5114437;28;20205;-75
2022/01/06 04:40:34;;;;;;;14.10;7.30;;;;;;;3.15;86.54;93886.28;5113591;28;20220;-76
2022/01/06 04:43:01;;;;;;;12.50;7.13;;;;;;;3.06;85.04;93866.69;5114590;28;20258;-75
2022/01/06 04:45:28;;;;;;;11.07;6.40;;;;;;;2.99;85.73;93877.78;5113932;28;20206;-74
2022/01/06 04:47:55;;;;;;;22.63;6.97;;;;;;;3.00;86.38;93900.00;5114135;28;20198;-74
2022/01/06 04:50:22;;;;;;;10.30;6.28;;;;;;;2.80;85.27;93901.16;5113977;28;20208;-74
2022/01/06 04:52:49;;;;;;;11.55;5.53;;;;;;;2.82;86.19;93915.84;5114127;28;20202;-74
2022/01/06 04:55:17;;;;;;;12.07;6.55;;;;;;;2.82;86.93;93899.00;5094245;28;20277;-75
2022/01/06 04:57:44;;;;;;;13.07;6.47;;;;;;;2.91;86.86;93907.09;5106272;28;20660;-73
2022/01/06 05:00:12;;;;;;;15.77;7.35;;;;;;;2.83;87.13;93932.66;5100836;28;20244;-76
2022/01/06 05:02:39;;;;;;;13.65;6.88;;;;;;;2.94;88.20;93874.41;5113914;28;20555;-75
2022/01/06 05:05:06;;;;;;;13.45;6.80;;;;;;;3.38;86.64;93904.00;5113408;28;20206;-74
2022/01/06 05:07:33;;;;;;;13.70;6.97;;;;;;;3.35;86.47;93901.94;5114099;28;20201;-76
2022/01/06 05:10:00;;;;;;;18.02;7.47;;;;;;;3.16;87.17;93903.91;5113729;28;20229;-74
2022/01/06 05:12:28;;;;;;;14.20;6.80;;;;;;;3.18;87.66;93915.91;5113489;28;20251;-73
2022/01/06 05:14:55;;;;;;;14.13;6.82;;;;;;;3.01;87.72;93896.19;5113470;28;20217;-73
2022/01/06 05:17:22;;;;;;;9.38;5.43;;;;;;;3.13;87.43;93909.91;5113251;28;20206;-75
2022/01/06 05:19:49;;;;;;;21.38;7.00;;;;;;;3.04;87.59;93879.56;5113223;28;20197;-73
2022/01/06 05:22:16;;;;;;;18.10;9.07;;;;;;;3.14;87.09;93895.44;5113323;28;20197;-75
2022/01/06 05:24:43;;;;;;;13.73;6.90;;;;;;;2.99;87.61;93909.09;5113320;28;20553;-73
2022/01/06 05:27:10;;;;;;;14.63;8.10;;;;;;;3.02;87.80;93913.84;5110696;28;20201;-74
2022/01/06 05:29:39;;;;;;;15.68;7.38;;;;;;;2.90;88.01;93914.34;5100329;28;20302;-73
2022/01/06 05:32:06;;;;;;;20.55;8.32;;;;;;;2.93;88.30;93915.63;5112894;28;20207;-74
2022/01/06 05:34:33;;;;;;;16.65;8.00;;;;;;;2.80;88.27;93901.16;5104224;28;20206;-73
2022/01/06 05:37:00;;;;;;;17.85;9.27;;;;;;;2.76;89.15;93910.88;5109061;28;20664;-73
2022/01/06 05:39:27;;;;;;;12.70;6.72;;;;;;;2.85;88.91;93893.06;5112412;28;20198;-73
2022/01/06 05:41:54;;;;;;;14.70;6.78;;;;;;;3.02;88.21;93903.13;5112436;28;20275;-73
2022/01/06 05:44:21;;;;;;;19.58;9.05;;;;;;;3.07;89.19;93913.75;5106901;28;20214;-75
2022/01/06 05:46:49;;;;;;;16.13;7.90;;;;;;;2.93;87.85;93915.63;5107177;28;20210;-73
2022/01/06 05:49:16;;;;;;;15.32;6.22;;;;;;;2.54;88.16;93913.41;5112636;28;20286;-74
2022/01/06 05:51:44;;;;;;;10.05;5.95;;;;;;;2.71;88.31;93903.75;5112470;28;20194;-75
2022/01/06 05:54:10;;;;;;;24.55;10.80;;;;;;;2.85;89.19;93899.19;5112563;28;20209;-73
2022/01/06 05:56:37;;;;;;;20.80;10.10;;;;;;;2.79;88.62;93919.09;5112239;28;20615;-74
2022/01/06 05:59:04;;;;;;;22.48;9.63;;;;;;;2.93;89.01;93915.63;5112351;28;20218;-74
2022/01/06 06:01:31;;;;;;;18.77;7.80;;;;;;;3.01;88.56;93920.28;5112030;28;20630;-73
2022/01/06 06:03:59;;;;;;;14.52;5.70;;;;;;;3.32;87.58;93913.22;5111479;28;20684;-74
2022/01/06 06:06:26;;;;;;;16.05;7.55;;;;;;;3.81;85.49;93900.94;5110077;28;20680;-73
2022/01/06 06:08:53;;;;;;;17.27;8.50;;;;;;;3.72;85.22;93918.78;5102246;28;20233;-73
2022/01/06 06:11:20;;;;;;;18.08;8.05;;;;;;;3.65;85.20;93899.69;5111280;28;20736;-74
2022/01/06 06:13:47;;;;;;;17.27;8.13;;;;;;;3.29;86.21;93903.13;5110911;28;20324;-73
2022/01/06 06:16:14;;;;;;;26.20;13.40;;;;;;;3.32;86.61;93913.22;5110893;28;20197;-73
2022/01/06 06:18:41;;;;;;;20.60;9.65;;;;;;;3.50;86.72;93925.69;5110892;28;20554;-74
2022/01/06 06:21:10;;;;;;;15.13;7.55;;;;;;;3.54;86.69;93924.00;5111508;28;20197;-73
2022/01/06 06:23:36;;;;;;;16.00;9.23;;;;;;;3.29;85.35;93903.13;5111040;28;20198;-73
2022/01/06 06:26:03;;;;;;;29.15;12.40;;;;;;;3.35;86.13;93895.78;5110984;28;20212;-73
2022/01/06 06:28:30;;;;;;;24.83;8.82;;;;;;;3.33;85.99;93930.88;5110057;28;20193;-74
2022/01/06 06:30:58;;;;;;;15.00;7.90;;;;;;;3.34;86.44;93921.75;5110902;28;20213;-75
2022/01/06 06:33:25;;;;;;;26.23;12.10;;;;;;;3.48;86.83;93927.09;5098041;28;20244;-73
2022/01/06 06:35:52;;;;;;;18.92;9.13;;;;;;;3.71;86.84;93926.03;5103954;28;20259;-74
2022/01/06 06:38:20;;;;;;;20.30;8.98;;;;;;;3.50;85.54;93914.19;5103359;28;20205;-73
2022/01/06 06:40:47;;;;;;;21.83;10.75;;;;;;;3.63;85.76;93936.69;5096591;28;20213;-74
2022/01/06 06:43:14;;;;;;;23.52;11.23;;;;;;;3.71;85.54;93919.88;5110831;28;20200;-74
2022/01/06 06:45:42;;;;;;;26.75;10.43;;;;;;;3.80;85.73;93939.53;5097481;28;20274;-73
2022/01/06 06:48:09;;;;;;;22.40;10.65;;;;;;;3.60;85.41;93934.59;5109393;28;20564;-75
2022/01/06 06:50:36;;;;;;;28.38;12.93;;;;;;;3.43;85.92;93927.97;5110022;28;20229;-73
2022/01/06 06:53:04;;;;;;;39.33;15.52;;;;;;;3.60;86.67;93950.66;5110718;28;20193;-74
2022/01/06 06:55:32;;;;;;;21.48;9.90;;;;;;;3.63;86.95;93950.06;5110299;28;20205;-73
2022/01/06 06:57:59;;;;;;;21.02;10.90;;;;;;;3.74;86.85;93946.06;5104744;28;20234;-75
2022/01/06 07:00:26;;;;;;;22.80;9.05;;;;;;;3.53;86.48;93924.31;5098458;28;20579;-75
2022/01/06 07:02:53;;;;;;;29.23;13.60;;;;;;;3.64;86.60;93946.31;5096733;28;20217;-74
2022/01/06 07:05:20;;;;;;;21.58;11.07;;;;;;;3.75;86.86;93942.31;5110757;28;20205;-74
2022/01/06 07:07:48;;;;;;;31.15;13.00;;;;;;;3.82;86.32;93943.50;5110504;28;20595;-74
2022/01/06 07:10:15;;;;;;;16.50;7.05;;;;;;;4.00;85.55;93914.13;5110403;28;20225;-74
2022/01/06 07:12:45;;;;;;;22.33;11.40;;;;;;;4.13;84.79;93932.03;5110118;28;20308;-75
2022/01/06 07:15:15;;;;;;;14.13;8.35;;;;;;;4.25;84.93;93946.50;5110697;28;20220;-74
2022/01/06 07:17:42;;;;;;;17.75;8.68;;;;;;;4.49;83.94;93945.41;5110869;28;20315;-75
2022/01/06 07:20:10;;;;;;;15.85;8.35;;;;;;;4.56;83.22;93953.78;5110671;28;20291;-75
2022/01/06 07:22:37;;;;;;;17.77;7.88;;;;;;;4.74;82.87;93947.44;5110354;28;20206;-75
2022/01/06 07:25:05;;;;;;;25.08;10.55;;;;;;;4.83;82.09;93950.97;5110750;28;20200;-74
2022/01/06 07:27:32;;;;;;;12.98;7.72;;;;;;;4.91;81.45;93952.91;5110595;28;20703;-74
2022/01/06 07:30:00;;;;;;;26.73;11.10;;;;;;;5.03;82.56;93970.31;5110374;28;20240;-74
2022/01/06 07:32:27;;;;;;;22.63;12.88;;;;;;;5.09;81.76;93955.66;5096770;28;20216;-74
2022/01/06 07:34:54;;;;;;;25.83;10.20;;;;;;;5.30;80.91;93965.53;5110254;28;20208;-74
2022/01/06 07:37:21;;;;;;;22.35;11.02;;;;;;;5.51;81.11;93965.75;5110218;28;20563;-73
2022/01/06 07:39:48;;;;;;;18.77;9.70;;;;;;;5.78;80.54;93974.66;5110366;28;20206;-75
2022/01/06 07:42:15;;;;;;;13.07;5.93;;;;;;;5.98;78.29;93968.75;5109537;28;20283;-75
2022/01/06 07:44:46;;;;;;;16.42;7.68;;;;;;;6.06;77.60;93959.88;5109706;28;20545;-74
2022/01/06 07:47:14;;;;;;;5.13;3.92;;;;;;;6.20;76.33;93957.81;5096990;28;20197;-74
2022/01/06 07:49:41;;;;;;;21.27;9.55;;;;;;;6.26;76.62;93970.03;5109637;28;20264;-75
2022/01/06 07:52:08;;;;;;;19.35;11.68;;;;;;;6.29;76.07;93980.13;5109733;28;20683;-75
2022/01/06 07:54:35;;;;;;;22.58;11.90;;;;;;;6.37;75.61;93973.97;5110073;28;20198;-74
2022/01/06 07:57:02;;;;;;;13.13;7.13;;;;;;;6.55;75.81;93965.91;5110177;28;20206;-74
2022/01/06 07:59:29;;;;;;;13.32;7.45;;;;;;;6.59;75.34;93966.81;5109247;28;20209;-74
2022/01/06 08:01:56;;;;;;;9.45;4.85;;;;;;;6.57;75.51;93959.06;5110144;28;20617;-75
2022/01/06 08:04:25;;;;;;;14.77;7.63;;;;;;;6.65;75.00;93969.03;5109813;28;20217;-74
2022/01/06 08:06:51;;;;;;;15.18;7.35;;;;;;;6.70;74.94;93973.44;5109945;28;20679;-74
2022/01/06 08:09:18;;;;;;;8.98;5.28;;;;;;;6.69;74.53;93958.44;5109401;28;20745;-75
2022/01/06 08:11:45;;;;;;;19.95;9.15;;;;;;;6.76;75.39;93977.56;5113371;28;20209;-74
2022/01/06 08:14:12;;;;;;;22.30;8.80;;;;;;;7.00;75.62;93983.22;5113745;28;20233;-75
2022/01/06 08:16:39;;;;;;;15.43;8.90;;;;;;;7.02;73.65;93989.06;5113690;28;20656;-74
2022/01/06 08:19:06;;;;;;;17.08;9.18;;;;;;;7.19;73.51;93987.44;5113804;28;20201;-75
2022/01/06 08:21:34;;;;;;;16.52;7.32;;;;;;;7.46;72.61;93984.34;5113719;28;20205;-74
2022/01/06 08:24:01;;;;;;;13.27;7.45;;;;;;;7.48;72.36;93990.22;5113666;28;20276;-75
2022/01/06 08:26:28;;;;;;;14.35;8.30;;;;;;;7.50;71.95;93985.28;5113735;28;20197;-75
2022/01/06 08:28:55;;;;;;;19.80;9.95;;;;;;;7.62;71.57;93971.91;5113624;28;20252;-73
2022/01/06 08:31:22;;;;;;;17.13;8.25;;;;;;;7.65;71.21;93971.28;5113383;27;20229;-75
2022/01/06 08:33:49;;;;;;;17.73;9.55;;;;;;;7.66;70.94;93975.53;5113037;28;20209;-74
2022/01/06 08:36:17;;;;;;;16.88;9.70;;;;;;;7.80;71.53;93994.94;5113153;28;20194;-75
2022/01/06 08:38:45;;;;;;;19.17;10.45;;;;;;;8.11;70.49;93977.66;5112984;28;20205;-74
2022/01/06 08:41:12;;;;;;;20.25;9.35;;;;;;;8.06;69.44;93975.16;5112832;28;20634;-75
2022/01/06 08:43:39;;;;;;;21.75;9.85;;;;;;;8.31;69.73;93982.28;5113024;28;20254;-74
2022/01/06 08:46:06;;;;;;;16.73;8.52;;;;;;;8.48;68.80;93982.16;5113547;28;20205;-74
2022/01/06 08:48:33;;;;;;;20.67;8.63;;;;;;;8.64;68.53;93973.44;5112214;28;20204;-73
2022/01/06 08:51:01;;;;;;;15.95;8.27;;;;;;;8.60;68.09;93967.16;5112988;28;20229;-74
2022/01/06 08:53:28;;;;;;;21.05;9.57;;;;;;;8.66;67.16;93987.41;5111962;28;20233;-74
2022/01/06 08:55:56;;;;;;;21.90;9.57;;;;;;;8.76;67.51;93970.78;5101839;28;20233;-73
2022/01/06 08:58:24;;;;;;;16.40;9.23;;;;;;;8.75;67.48;93953.81;5110785;28;20217;-74
2022/01/06 09:00:50;;;;;;;22.45;11.40;;;;;;;9.02;66.97;93957.81;5112579;28;20213;-73
2022/01/06 09:03:17;;;;;;;15.65;7.88;;;;;;;9.02;66.10;93957.81;5111423;28;20221;-73
2022/01/06 09:05:44;;;;;;;18.77;9.15;;;;;;;9.24;66.19;93970.94;5099983;28;20207;-74
2022/01/06 09:08:11;;;;;;;18.27;8.63;;;;;;;9.43;65.82;93961.53;5111382;28;20204;-74
2022/01/06 09:10:38;;;;;;;21.67;12.68;;;;;;;9.52;64.94;93964.91;5111950;28;20695;-74
2022/01/06 09:13:07;;;;;;;29.17;14.15;;;;;;;9.67;64.86;93977.78;5112729;28;20221;-73
2022/01/06 09:15:34;;;;;;;21.05;9.27;;;;;;;9.33;65.01;93956.53;5099187;28;20221;-74
2022/01/06 09:18:01;;;;;;;26.42;12.57;;;;;;;9.40;64.92;93954.88;5111730;28;20206;-74
2022/01/06 09:20:29;;;;;;;21.02;11.68;;;;;;;9.46;64.13;93950.03;5112416;28;20690;-74
2022/01/06 09:22:56;;;;;;;26.83;12.63;;;;;;;9.51;64.28;93947.09;5111265;28;20377;-74
2022/01/06 09:25:23;;;;;;;22.77;12.38;;;;;;;9.79;64.13;93948.03;5112711;28;20202;-74
2022/01/06 09:27:50;;;;;;;20.45;11.13;;;;;;;9.88;62.44;93943.28;5111899;28;20254;-74
2022/01/06 09:30:19;;;;;;;22.45;12.57;;;;;;;9.85;63.16;93941.25;5114740;28;20225;-74
2022/01/06 09:32:46;;;;;;;21.27;12.10;;;;;;;10.08;62.04;93932.66;5111984;28;20240;-73
2022/01/06 09:35:13;;;;;;;24.02;13.50;;;;;;;10.18;61.88;93915.94;5111585;28;20209;-74
2022/01/06 09:37:40;;;;;;;19.52;13.20;;;;;;;10.39;61.89;93932.06;5098704;28;20202;-74
2022/01/06 09:40:09;;;;;;;18.70;11.38;;;;;;;10.73;60.28;93927.97;5111546;28;20216;-74
2022/01/06 09:42:37;;;;;;;29.88;11.90;;;;;;;10.51;59.94;93916.56;5111122;28;20233;-74
2022/01/06 09:45:05;;;;;;;25.95;13.82;;;;;;;10.56;60.69;93915.50;5111366;28;20206;-74
2022/01/06 09:47:33;;;;;;;17.13;10.15;;;;;;;10.88;58.84;93916.38;5111646;28;20197;-73
2022/01/06 09:50:00;;;;;;;22.17;12.50;;;;;;;11.04;58.97;93909.09;5111197;28;20237;-73
2022/01/06 09:52:27;;;;;;;21.92;12.50;;;;;;;11.17;59.98;93929.56;5109876;28;20206;-74
2022/01/06 09:54:54;;;;;;;23.55;12.25;;;;;;;11.27;57.92;93918.19;5111600;28;20224;-74
2022/01/06 09:57:21;;;;;;;21.08;12.15;;;;;;;11.22;58.12;93915.72;5111244;28;20615;-73
2022/01/06 09:59:48;;;;;;;20.35;12.75;;;;;;;11.38;58.04;93913.03;5111237;28;20228;-75
2022/01/06 10:02:17;;;;;;;26.10;13.07;;;;;;;11.44;57.75;93919.00;5111227;28;20202;-74
2022/01/06 10:04:47;;;;;;;33.22;13.48;;;;;;;11.58;57.66;93922.06;5097215;28;20237;-74
2022/01/06 10:07:16;;;;;;;28.70;15.18;;;;;;;11.58;57.70;93917.41;5111621;28;20219;-74
2022/01/06 10:09:43;;;;;;;30.00;15.20;;;;;;;11.73;57.35;93929.41;5097191;28;20208;-74
2022/01/06 10:12:13;;;;;;;30.48;15.52;;;;;;;11.96;56.82;93916.00;5111639;28;20249;-74
2022/01/06 10:14:43;;;;;;;22.63;12.43;;;;;;;12.05;56.39;93903.78;5111516;28;20197;-74
2022/01/06 10:17:14;;;;;;;24.13;12.95;;;;;;;12.23;55.41;93908.81;5111172;28;20557;-73
2022/01/06 10:19:43;;;;;;;22.02;13.05;;;;;;;12.24;54.85;93900.31;5111618;28;20202;-73
2022/01/06 10:22:17;;;;;;;23.10;13.32;;;;;;;12.37;55.56;93892.84;5110808;28;20606;-73
2022/01/06 10:24:45;;;;;;;20.20;12.23;;;;;;;12.33;54.72;93898.19;5099083;28;20199;-74
2022/01/06 10:27:14;;;;;;;25.05;12.48;;;;;;;12.44;55.44;93906.53;5110696;28;20262;-74
2022/01/06 10:29:43;;;;;;;26.10;12.40;;;;;;;12.67;55.02;93902.00;5099572;28;20202;-73
2022/01/06 10:32:12;;;;;;;25.75;12.82;;;;;;;13.11;53.87;93915.25;5111430;28;20209;-74
2022/01/06 10:34:42;;;;;;;23.55;11.07;;;;;;;13.31;52.18;93892.31;5110955;28;20828;-74
2022/01/06 10:37:20;;;;;;;14.13;6.82;;;;;;;13.63;49.95;93900.25;5111699;28;20204;-73
2022/01/06 10:39:48;;;;;;;19.10;9.05;;;;;;;13.70;50.46;93886.75;5111805;28;20612;-73
2022/01/06 10:42:16;;;;;;;18.63;10.15;;;;;;;13.60;50.88;93877.25;5111167;28;20237;-73
2022/01/06 10:44:50;;;;;;;19.83;9.50;;;;;;;13.58;50.43;93873.31;5110843;28;20197;-74
2022/01/06 10:47:30;;;;;;;18.55;8.52;;;;;;;13.79;50.31;93887.28;5097685;28;20209;-74
2022/01/06 10:50:08;;;;;;;9.70;6.97;;;;;;;13.96;48.61;93878.56;5111181;28;20289;-74
2022/01/06 10:52:39;;;;;;;15.52;9.05;;;;;;;13.83;50.07;93858.94;5111462;28;20189;-73
2022/01/06 10:55:14;;;;;;;17.95;9.10;;;;;;;14.10;49.36;93873.34;5111189;28;20190;-74
2022/01/06 10:57:52;;;;;;;11.07;6.20;;;;;;;14.24;47.85;93867.28;5111182;28;20201;-74
2022/01/06 11:00:20;;;;;;;14.15;7.43;;;;;;;14.39;47.65;93873.72;5090932;28;20532;-73
2022/01/06 11:02:47;;;;;;;12.30;7.68;;;;;;;14.40;47.89;93869.88;5105792;28;20255;-73
2022/01/06 11:05:13;;;;;;;14.27;7.93;;;;;;;14.37;48.30;93865.13;5111407;28;20197;-73
2022/01/06 11:07:43;;;;;;;12.43;6.20;;;;;;;14.16;48.71;93868.38;5111040;28;20201;-73
2022/01/06 11:10:16;;;;;;;11.70;6.55;;;;;;;14.33;48.09;93872.50;5111080;28;20224;-74
2022/01/06 11:12:43;;;;;;;9.70;6.38;;;;;;;14.44;47.80;93867.97;5111029;28;20260;-75
2022/01/06 11:15:11;;;;;;;11.82;6.53;;;;;;;14.44;48.00;93876.94;5110931;28;20216;-73
2022/01/06 11:17:38;;;;;;;14.40;6.53;;;;;;;14.39;47.91;93862.81;5111103;28;20292;-73
2022/01/06 11:20:06;;;;;;;10.55;5.65;;;;;;;14.56;47.66;93857.63;5110422;28;20201;-73
2022/01/06 11:22:33;;;;;;;14.02;5.70;;;;;;;14.81;46.77;93855.19;5110584;28;20202;-73
2022/01/06 11:25:03;;;;;;;9.13;5.25;;;;;;;14.97;45.71;93851.44;5110528;28;20213;-74
2022/01/06 11:27:33;;;;;;;11.45;5.10;;;;;;;15.06;46.08;93854.66;5111039;28;20224;-73
2022/01/06 11:30:09;;;;;;;8.45;4.63;;;;;;;15.30;44.93;93862.31;5110950;28;20308;-74
2022/01/06 11:32:36;;;;;;;10.07;4.57;;;;;;;15.39;44.36;93846.41;5110921;28;20541;-74
2022/01/06 11:35:05;;;;;;;9.15;4.20;;;;;;;15.39;43.44;93849.13;5110791;28;20656;-74
2022/01/06 11:37:41;;;;;;;10.50;4.05;;;;;;;15.43;43.62;93855.41;5110712;28;20279;-73